sensor_id;sensor_type;location;lat;lon;timestamp;P1;durP1;ratioP1;P2;durP2;ratioP2
30697;SDS011;17448;47.200;10.902;2024-03-29T00:01:23;18.58;;;13.18;;
30697;SDS011;17448;47.200;10.902;2024-03-29T00:03:49;19.00;;;13.52;;
30697;SDS011;17448;47.200;10.902;2024-03-29T00:06:18;18.33;;;12.77;;
30697;SDS011;17448;47.200;10.902;2024-03-29T00:08:44;17.40;;;12.45;;
30697;SDS011;17448;47.200;10.902;2024-03-29T00:11:10;17.23;;;12.10;;
30697;SDS011;17448;47.200;10.902;2024-03-29T00:13:37;12.43;;;9.40;;
30697;SDS011;17448;47.200;10.902;2024-03-29T00:16:03;7.57;;;5.93;;
30697;SDS011;17448;47.200;10.902;2024-03-29T00:18:29;6.97;;;5.75;;
30697;SDS011;17448;47.200;10.902;2024-03-29T00:20:56;11.68;;;8.35;;
30697;SDS011;17448;47.200;10.902;2024-03-29T00:23:22;11.80;;;9.13;;
30697;SDS011;17448;47.200;10.902;2024-03-29T00:25:48;13.50;;;9.77;;
30697;SDS011;17448;47.200;10.902;2024-03-29T00:28:15;11.98;;;9.07;;
30697;SDS011;17448;47.200;10.902;2024-03-29T00:30:41;12.82;;;9.40;;
30697;SDS011;17448;47.200;10.902;2024-03-29T00:33:08;14.23;;;8.63;;
30697;SDS011;17448;47.200;10.902;2024-03-29T00:35:34;12.02;;;8.50;;
30697;SDS011;17448;47.200;10.902;2024-03-29T00:38:00;11.57;;;8.18;;
30697;SDS011;17448;47.200;10.902;2024-03-29T00:40:26;11.57;;;7.72;;
30697;SDS011;17448;47.200;10.902;2024-03-29T00:42:53;9.98;;;7.63;;
30697;SDS011;17448;47.200;10.902;2024-03-29T00:45:19;11.65;;;8.43;;
30697;SDS011;17448;47.200;10.902;2024-03-29T00:47:45;11.52;;;7.70;;
30697;SDS011;17448;47.200;10.902;2024-03-29T00:50:11;9.50;;;7.18;;
30697;SDS011;17448;47.200;10.902;2024-03-29T00:52:38;10.27;;;7.72;;
30697;SDS011;17448;47.200;10.902;2024-03-29T00:55:04;10.80;;;7.70;;
30697;SDS011;17448;47.200;10.902;2024-03-29T00:57:31;9.88;;;7.57;;
30697;SDS011;17448;47.200;10.902;2024-03-29T00:59:57;12.68;;;8.48;;
30697;SDS011;17448;47.200;10.902;2024-03-29T01:02:23;12.02;;;7.70;;
30697;SDS011;17448;47.200;10.902;2024-03-29T01:04:50;9.98;;;7.10;;
30697;SDS011;17448;47.200;10.902;2024-03-29T01:07:17;9.10;;;6.93;;
30697;SDS011;17448;47.200;10.902;2024-03-29T01:09:43;9.38;;;7.50;;
30697;SDS011;17448;47.200;10.902;2024-03-29T01:12:10;9.90;;;7.03;;
30697;SDS011;17448;47.200;10.902;2024-03-29T01:14:37;10.10;;;7.65;;
30697;SDS011;17448;47.200;10.902;2024-03-29T01:17:03;10.07;;;7.70;;
30697;SDS011;17448;47.200;10.902;2024-03-29T01:19:31;10.60;;;7.43;;
30697;SDS011;17448;47.200;10.902;2024-03-29T01:21:58;11.32;;;7.80;;
30697;SDS011;17448;47.200;10.902;2024-03-29T01:24:24;9.52;;;7.22;;
30697;SDS011;17448;47.200;10.902;2024-03-29T01:26:51;9.13;;;7.20;;
30697;SDS011;17448;47.200;10.902;2024-03-29T01:29:17;10.45;;;8.00;;
30697;SDS011;17448;47.200;10.902;2024-03-29T01:31:43;10.75;;;7.70;;
30697;SDS011;17448;47.200;10.902;2024-03-29T01:34:10;9.10;;;6.85;;
30697;SDS011;17448;47.200;10.902;2024-03-29T01:36:36;10.18;;;7.22;;
30697;SDS011;17448;47.200;10.902;2024-03-29T01:39:02;10.45;;;7.68;;
30697;SDS011;17448;47.200;10.902;2024-03-29T01:41:29;8.65;;;7.07;;
30697;SDS011;17448;47.200;10.902;2024-03-29T01:43:55;9.63;;;7.45;;
30697;SDS011;17448;47.200;10.902;2024-03-29T01:46:23;9.00;;;6.90;;
30697;SDS011;17448;47.200;10.902;2024-03-29T01:48:53;10.68;;;7.15;;
30697;SDS011;17448;47.200;10.902;2024-03-29T01:51:19;8.32;;;5.80;;
30697;SDS011;17448;47.200;10.902;2024-03-29T01:53:47;6.78;;;5.65;;
30697;SDS011;17448;47.200;10.902;2024-03-29T01:56:13;9.18;;;5.70;;
30697;SDS011;17448;47.200;10.902;2024-03-29T01:58:40;7.60;;;5.70;;
30697;SDS011;17448;47.200;10.902;2024-03-29T02:01:07;9.40;;;5.93;;
30697;SDS011;17448;47.200;10.902;2024-03-29T02:03:33;8.93;;;5.30;;
30697;SDS011;17448;47.200;10.902;2024-03-29T02:06:00;7.45;;;6.18;;
30697;SDS011;17448;47.200;10.902;2024-03-29T02:08:27;7.55;;;5.85;;
30697;SDS011;17448;47.200;10.902;2024-03-29T02:10:54;6.15;;;5.03;;
30697;SDS011;17448;47.200;10.902;2024-03-29T02:13:24;8.65;;;6.32;;
30697;SDS011;17448;47.200;10.902;2024-03-29T02:15:51;6.93;;;5.53;;
30697;SDS011;17448;47.200;10.902;2024-03-29T02:18:17;9.50;;;5.35;;
30697;SDS011;17448;47.200;10.902;2024-03-29T02:20:43;7.75;;;6.30;;
30697;SDS011;17448;47.200;10.902;2024-03-29T02:23:32;6.95;;;5.45;;
30697;SDS011;17448;47.200;10.902;2024-03-29T02:25:56;7.40;;;5.32;;
30697;SDS011;17448;47.200;10.902;2024-03-29T02:28:22;7.70;;;5.65;;
30697;SDS011;17448;47.200;10.902;2024-03-29T02:30:49;7.18;;;5.00;;
30697;SDS011;17448;47.200;10.902;2024-03-29T02:33:16;7.25;;;5.38;;
30697;SDS011;17448;47.200;10.902;2024-03-29T02:35:42;7.10;;;5.53;;
30697;SDS011;17448;47.200;10.902;2024-03-29T02:38:08;8.02;;;5.35;;
30697;SDS011;17448;47.200;10.902;2024-03-29T02:40:34;7.45;;;5.28;;
30697;SDS011;17448;47.200;10.902;2024-03-29T02:43:00;8.40;;;5.38;;
30697;SDS011;17448;47.200;10.902;2024-03-29T02:45:27;7.63;;;5.22;;
30697;SDS011;17448;47.200;10.902;2024-03-29T02:47:53;8.90;;;5.97;;
30697;SDS011;17448;47.200;10.902;2024-03-29T02:50:19;7.75;;;5.35;;
30697;SDS011;17448;47.200;10.902;2024-03-29T02:52:46;8.20;;;5.30;;
30697;SDS011;17448;47.200;10.902;2024-03-29T02:55:12;7.18;;;5.10;;
30697;SDS011;17448;47.200;10.902;2024-03-29T02:57:39;7.40;;;5.18;;
30697;SDS011;17448;47.200;10.902;2024-03-29T03:00:05;10.60;;;7.25;;
30697;SDS011;17448;47.200;10.902;2024-03-29T03:02:32;10.43;;;6.40;;
30697;SDS011;17448;47.200;10.902;2024-03-29T03:04:58;9.93;;;6.63;;
30697;SDS011;17448;47.200;10.902;2024-03-29T03:07:26;7.97;;;5.50;;
30697;SDS011;17448;47.200;10.902;2024-03-29T03:10:10;8.90;;;6.43;;
30697;SDS011;17448;47.200;10.902;2024-03-29T03:12:55;10.65;;;6.82;;
30697;SDS011;17448;47.200;10.902;2024-03-29T03:15:22;7.38;;;5.85;;
30697;SDS011;17448;47.200;10.902;2024-03-29T03:17:48;11.55;;;7.07;;
30697;SDS011;17448;47.200;10.902;2024-03-29T03:20:14;16.73;;;7.82;;
30697;SDS011;17448;47.200;10.902;2024-03-29T03:22:41;10.85;;;7.55;;
30697;SDS011;17448;47.200;10.902;2024-03-29T03:25:08;72.97;;;9.18;;
30697;SDS011;17448;47.200;10.902;2024-03-29T03:27:34;9.35;;;6.78;;
30697;SDS011;17448;47.200;10.902;2024-03-29T03:30:00;11.27;;;7.45;;
30697;SDS011;17448;47.200;10.902;2024-03-29T03:32:27;26.90;;;7.60;;
30697;SDS011;17448;47.200;10.902;2024-03-29T03:34:53;12.35;;;7.50;;
30697;SDS011;17448;47.200;10.902;2024-03-29T03:37:19;13.25;;;7.47;;
30697;SDS011;17448;47.200;10.902;2024-03-29T03:39:46;65.75;;;9.13;;
30697;SDS011;17448;47.200;10.902;2024-03-29T03:42:12;30.27;;;8.00;;
30697;SDS011;17448;47.200;10.902;2024-03-29T03:44:38;30.92;;;8.23;;
30697;SDS011;17448;47.200;10.902;2024-03-29T03:47:04;10.70;;;7.20;;
30697;SDS011;17448;47.200;10.902;2024-03-29T03:49:31;10.82;;;7.05;;
30697;SDS011;17448;47.200;10.902;2024-03-29T03:51:57;19.15;;;7.00;;
30697;SDS011;17448;47.200;10.902;2024-03-29T03:54:23;10.77;;;6.95;;
30697;SDS011;17448;47.200;10.902;2024-03-29T03:56:50;15.13;;;7.43;;
30697;SDS011;17448;47.200;10.902;2024-03-29T03:59:16;19.38;;;7.30;;
30697;SDS011;17448;47.200;10.902;2024-03-29T04:01:42;9.20;;;6.30;;
30697;SDS011;17448;47.200;10.902;2024-03-29T04:04:08;9.65;;;7.00;;
30697;SDS011;17448;47.200;10.902;2024-03-29T04:06:35;12.75;;;6.70;;
30697;SDS011;17448;47.200;10.902;2024-03-29T04:09:01;15.85;;;7.10;;
30697;SDS011;17448;47.200;10.902;2024-03-29T04:11:28;9.75;;;7.18;;
30697;SDS011;17448;47.200;10.902;2024-03-29T04:13:54;11.52;;;7.38;;
30697;SDS011;17448;47.200;10.902;2024-03-29T04:16:20;8.88;;;6.72;;
30697;SDS011;17448;47.200;10.902;2024-03-29T04:18:47;9.65;;;6.78;;
30697;SDS011;17448;47.200;10.902;2024-03-29T04:21:13;8.55;;;5.97;;
30697;SDS011;17448;47.200;10.902;2024-03-29T04:23:39;10.10;;;6.72;;
30697;SDS011;17448;47.200;10.902;2024-03-29T04:26:06;10.25;;;5.68;;
30697;SDS011;17448;47.200;10.902;2024-03-29T04:28:32;8.52;;;5.90;;
30697;SDS011;17448;47.200;10.902;2024-03-29T04:30:59;7.90;;;5.60;;
30697;SDS011;17448;47.200;10.902;2024-03-29T04:33:26;10.80;;;6.78;;
30697;SDS011;17448;47.200;10.902;2024-03-29T04:38:22;7.97;;;5.72;;
30697;SDS011;17448;47.200;10.902;2024-03-29T04:40:48;7.95;;;5.50;;
30697;SDS011;17448;47.200;10.902;2024-03-29T04:43:15;18.70;;;6.60;;
30697;SDS011;17448;47.200;10.902;2024-03-29T04:45:42;8.13;;;5.93;;
30697;SDS011;17448;47.200;10.902;2024-03-29T04:48:08;7.25;;;5.57;;
30697;SDS011;17448;47.200;10.902;2024-03-29T04:50:35;8.15;;;6.03;;
30697;SDS011;17448;47.200;10.902;2024-03-29T04:53:01;8.68;;;6.10;;
30697;SDS011;17448;47.200;10.902;2024-03-29T04:55:28;10.88;;;6.78;;
30697;SDS011;17448;47.200;10.902;2024-03-29T04:57:54;10.48;;;5.93;;
30697;SDS011;17448;47.200;10.902;2024-03-29T05:00:20;8.52;;;5.93;;
30697;SDS011;17448;47.200;10.902;2024-03-29T05:02:46;6.50;;;4.93;;
30697;SDS011;17448;47.200;10.902;2024-03-29T05:05:12;7.63;;;5.47;;
30697;SDS011;17448;47.200;10.902;2024-03-29T05:07:39;6.45;;;4.75;;
30697;SDS011;17448;47.200;10.902;2024-03-29T05:10:05;6.53;;;4.78;;
30697;SDS011;17448;47.200;10.902;2024-03-29T05:12:33;7.07;;;5.15;;
30697;SDS011;17448;47.200;10.902;2024-03-29T05:14:59;7.55;;;5.38;;
30697;SDS011;17448;47.200;10.902;2024-03-29T05:17:25;7.38;;;5.10;;
30697;SDS011;17448;47.200;10.902;2024-03-29T05:19:55;7.20;;;5.00;;
30697;SDS011;17448;47.200;10.902;2024-03-29T05:22:22;8.18;;;5.80;;
30697;SDS011;17448;47.200;10.902;2024-03-29T05:24:50;7.00;;;5.15;;
30697;SDS011;17448;47.200;10.902;2024-03-29T05:27:19;4.78;;;3.50;;
30697;SDS011;17448;47.200;10.902;2024-03-29T05:29:45;6.20;;;4.32;;
30697;SDS011;17448;47.200;10.902;2024-03-29T05:32:12;4.18;;;3.45;;
30697;SDS011;17448;47.200;10.902;2024-03-29T05:34:38;5.05;;;3.75;;
30697;SDS011;17448;47.200;10.902;2024-03-29T05:37:04;6.03;;;4.00;;
30697;SDS011;17448;47.200;10.902;2024-03-29T05:39:33;4.55;;;3.42;;
30697;SDS011;17448;47.200;10.902;2024-03-29T05:41:59;4.35;;;3.17;;
30697;SDS011;17448;47.200;10.902;2024-03-29T05:44:25;6.20;;;4.60;;
30697;SDS011;17448;47.200;10.902;2024-03-29T05:46:51;7.55;;;5.28;;
30697;SDS011;17448;47.200;10.902;2024-03-29T05:49:18;7.85;;;5.13;;
30697;SDS011;17448;47.200;10.902;2024-03-29T05:51:44;6.10;;;4.63;;
30697;SDS011;17448;47.200;10.902;2024-03-29T05:54:10;10.13;;;4.78;;
30697;SDS011;17448;47.200;10.902;2024-03-29T05:56:36;4.60;;;3.65;;
30697;SDS011;17448;47.200;10.902;2024-03-29T05:59:03;5.07;;;3.60;;
30697;SDS011;17448;47.200;10.902;2024-03-29T06:01:29;5.25;;;4.15;;
30697;SDS011;17448;47.200;10.902;2024-03-29T06:03:56;5.53;;;4.18;;
30697;SDS011;17448;47.200;10.902;2024-03-29T06:06:28;8.27;;;4.60;;
30697;SDS011;17448;47.200;10.902;2024-03-29T06:08:54;6.32;;;4.40;;
30697;SDS011;17448;47.200;10.902;2024-03-29T06:11:21;8.13;;;4.13;;
30697;SDS011;17448;47.200;10.902;2024-03-29T06:13:47;6.40;;;3.95;;
30697;SDS011;17448;47.200;10.902;2024-03-29T06:16:19;6.63;;;3.70;;
30697;SDS011;17448;47.200;10.902;2024-03-29T06:19:04;5.80;;;4.25;;
30697;SDS011;17448;47.200;10.902;2024-03-29T06:21:30;7.13;;;4.05;;
30697;SDS011;17448;47.200;10.902;2024-03-29T06:24:08;4.53;;;3.78;;
30697;SDS011;17448;47.200;10.902;2024-03-29T06:26:37;6.00;;;4.25;;
30697;SDS011;17448;47.200;10.902;2024-03-29T06:29:04;6.88;;;4.78;;
30697;SDS011;17448;47.200;10.902;2024-03-29T06:31:30;7.28;;;4.28;;
30697;SDS011;17448;47.200;10.902;2024-03-29T06:34:00;6.20;;;3.83;;
30697;SDS011;17448;47.200;10.902;2024-03-29T06:36:26;5.47;;;3.83;;
30697;SDS011;17448;47.200;10.902;2024-03-29T06:38:56;5.07;;;4.00;;
30697;SDS011;17448;47.200;10.902;2024-03-29T06:41:22;6.45;;;3.90;;
30697;SDS011;17448;47.200;10.902;2024-03-29T06:43:48;8.07;;;3.97;;
30697;SDS011;17448;47.200;10.902;2024-03-29T06:46:15;6.13;;;4.03;;
30697;SDS011;17448;47.200;10.902;2024-03-29T06:48:41;6.88;;;4.18;;
30697;SDS011;17448;47.200;10.902;2024-03-29T06:51:07;6.15;;;3.92;;
30697;SDS011;17448;47.200;10.902;2024-03-29T06:53:33;5.90;;;3.83;;
30697;SDS011;17448;47.200;10.902;2024-03-29T06:56:00;6.50;;;4.35;;
30697;SDS011;17448;47.200;10.902;2024-03-29T06:58:27;7.05;;;5.13;;
30697;SDS011;17448;47.200;10.902;2024-03-29T07:00:53;6.00;;;4.22;;
30697;SDS011;17448;47.200;10.902;2024-03-29T07:03:19;6.30;;;4.45;;
30697;SDS011;17448;47.200;10.902;2024-03-29T07:05:46;7.78;;;4.60;;
30697;SDS011;17448;47.200;10.902;2024-03-29T07:08:13;7.68;;;4.90;;
30697;SDS011;17448;47.200;10.902;2024-03-29T07:10:39;6.82;;;5.13;;
30697;SDS011;17448;47.200;10.902;2024-03-29T07:13:06;9.32;;;6.18;;
30697;SDS011;17448;47.200;10.902;2024-03-29T07:15:33;9.20;;;5.40;;
30697;SDS011;17448;47.200;10.902;2024-03-29T07:18:02;9.75;;;5.68;;
30697;SDS011;17448;47.200;10.902;2024-03-29T07:20:29;9.13;;;5.68;;
30697;SDS011;17448;47.200;10.902;2024-03-29T07:22:55;10.48;;;5.40;;
30697;SDS011;17448;47.200;10.902;2024-03-29T07:25:22;8.73;;;5.70;;
30697;SDS011;17448;47.200;10.902;2024-03-29T07:27:48;9.68;;;6.40;;
30697;SDS011;17448;47.200;10.902;2024-03-29T07:30:17;7.70;;;5.63;;
30697;SDS011;17448;47.200;10.902;2024-03-29T07:32:43;9.80;;;5.63;;
30697;SDS011;17448;47.200;10.902;2024-03-29T07:35:10;8.32;;;5.90;;
30697;SDS011;17448;47.200;10.902;2024-03-29T07:37:37;8.10;;;5.32;;
30697;SDS011;17448;47.200;10.902;2024-03-29T07:40:05;11.75;;;6.13;;
30697;SDS011;17448;47.200;10.902;2024-03-29T07:42:31;11.52;;;5.13;;
30697;SDS011;17448;47.200;10.902;2024-03-29T07:44:57;10.80;;;6.75;;
30697;SDS011;17448;47.200;10.902;2024-03-29T07:47:24;12.00;;;8.13;;
30697;SDS011;17448;47.200;10.902;2024-03-29T07:49:51;12.43;;;7.97;;
30697;SDS011;17448;47.200;10.902;2024-03-29T07:52:17;8.57;;;7.07;;
30697;SDS011;17448;47.200;10.902;2024-03-29T07:54:44;11.00;;;7.20;;
30697;SDS011;17448;47.200;10.902;2024-03-29T07:57:10;9.45;;;6.25;;
30697;SDS011;17448;47.200;10.902;2024-03-29T07:59:40;7.18;;;5.40;;
30697;SDS011;17448;47.200;10.902;2024-03-29T08:02:06;10.02;;;6.45;;
30697;SDS011;17448;47.200;10.902;2024-03-29T08:04:32;8.43;;;5.72;;
30697;SDS011;17448;47.200;10.902;2024-03-29T08:06:59;8.25;;;5.50;;
30697;SDS011;17448;47.200;10.902;2024-03-29T08:09:25;6.45;;;4.95;;
30697;SDS011;17448;47.200;10.902;2024-03-29T08:11:51;8.77;;;5.22;;
30697;SDS011;17448;47.200;10.902;2024-03-29T08:14:17;6.35;;;4.53;;
30697;SDS011;17448;47.200;10.902;2024-03-29T08:16:44;8.65;;;4.55;;
30697;SDS011;17448;47.200;10.902;2024-03-29T08:19:10;7.80;;;5.28;;
30697;SDS011;17448;47.200;10.902;2024-03-29T08:21:36;9.00;;;6.28;;
30697;SDS011;17448;47.200;10.902;2024-03-29T08:24:02;12.75;;;5.00;;
30697;SDS011;17448;47.200;10.902;2024-03-29T08:26:29;6.28;;;4.13;;
30697;SDS011;17448;47.200;10.902;2024-03-29T08:28:56;5.85;;;4.13;;
30697;SDS011;17448;47.200;10.902;2024-03-29T08:31:23;7.20;;;4.38;;
30697;SDS011;17448;47.200;10.902;2024-03-29T08:33:49;6.72;;;4.93;;
30697;SDS011;17448;47.200;10.902;2024-03-29T08:36:16;12.25;;;5.20;;
30697;SDS011;17448;47.200;10.902;2024-03-29T08:38:42;9.38;;;4.90;;
30697;SDS011;17448;47.200;10.902;2024-03-29T08:41:10;7.88;;;5.05;;
30697;SDS011;17448;47.200;10.902;2024-03-29T08:43:37;6.22;;;4.90;;
30697;SDS011;17448;47.200;10.902;2024-03-29T08:46:03;11.40;;;5.32;;
30697;SDS011;17448;47.200;10.902;2024-03-29T08:48:29;9.68;;;5.72;;
30697;SDS011;17448;47.200;10.902;2024-03-29T08:50:55;9.88;;;4.82;;
30697;SDS011;17448;47.200;10.902;2024-03-29T08:53:22;7.13;;;4.18;;
30697;SDS011;17448;47.200;10.902;2024-03-29T08:55:48;6.43;;;3.70;;
30697;SDS011;17448;47.200;10.902;2024-03-29T08:58:14;6.28;;;3.50;;
30697;SDS011;17448;47.200;10.902;2024-03-29T09:00:41;5.85;;;3.28;;
30697;SDS011;17448;47.200;10.902;2024-03-29T09:03:07;5.60;;;3.17;;
30697;SDS011;17448;47.200;10.902;2024-03-29T09:05:33;6.22;;;3.15;;
30697;SDS011;17448;47.200;10.902;2024-03-29T09:08:00;7.63;;;2.72;;
30697;SDS011;17448;47.200;10.902;2024-03-29T09:10:26;3.17;;;2.65;;
30697;SDS011;17448;47.200;10.902;2024-03-29T09:12:52;6.72;;;3.08;;
30697;SDS011;17448;47.200;10.902;2024-03-29T09:15:19;2.90;;;2.33;;
30697;SDS011;17448;47.200;10.902;2024-03-29T09:17:45;4.68;;;2.58;;
30697;SDS011;17448;47.200;10.902;2024-03-29T09:20:12;4.50;;;2.65;;
30697;SDS011;17448;47.200;10.902;2024-03-29T09:22:39;3.83;;;2.20;;
30697;SDS011;17448;47.200;10.902;2024-03-29T09:25:05;3.33;;;2.28;;
30697;SDS011;17448;47.200;10.902;2024-03-29T09:27:33;8.10;;;2.63;;
30697;SDS011;17448;47.200;10.902;2024-03-29T09:30:01;5.95;;;2.40;;
30697;SDS011;17448;47.200;10.902;2024-03-29T09:32:28;3.88;;;2.30;;
30697;SDS011;17448;47.200;10.902;2024-03-29T09:34:54;3.58;;;2.22;;
30697;SDS011;17448;47.200;10.902;2024-03-29T09:37:20;4.07;;;2.10;;
30697;SDS011;17448;47.200;10.902;2024-03-29T09:39:47;4.40;;;2.50;;
30697;SDS011;17448;47.200;10.902;2024-03-29T09:42:15;5.53;;;2.15;;
30697;SDS011;17448;47.200;10.902;2024-03-29T09:44:43;5.13;;;1.95;;
30697;SDS011;17448;47.200;10.902;2024-03-29T09:47:11;5.90;;;2.03;;
30697;SDS011;17448;47.200;10.902;2024-03-29T09:49:39;5.70;;;2.05;;
30697;SDS011;17448;47.200;10.902;2024-03-29T09:52:09;4.20;;;1.77;;
30697;SDS011;17448;47.200;10.902;2024-03-29T09:54:35;2.15;;;1.60;;
30697;SDS011;17448;47.200;10.902;2024-03-29T09:57:02;3.70;;;1.98;;
30697;SDS011;17448;47.200;10.902;2024-03-29T09:59:29;6.07;;;2.05;;
30697;SDS011;17448;47.200;10.902;2024-03-29T10:01:55;3.67;;;1.85;;
30697;SDS011;17448;47.200;10.902;2024-03-29T10:04:23;1.60;;;1.40;;
30697;SDS011;17448;47.200;10.902;2024-03-29T10:06:50;3.22;;;1.77;;
30697;SDS011;17448;47.200;10.902;2024-03-29T10:09:17;2.17;;;1.60;;
30697;SDS011;17448;47.200;10.902;2024-03-29T10:11:44;2.65;;;1.70;;
30697;SDS011;17448;47.200;10.902;2024-03-29T10:14:11;3.78;;;1.60;;
30697;SDS011;17448;47.200;10.902;2024-03-29T10:16:37;2.85;;;1.30;;
30697;SDS011;17448;47.200;10.902;2024-03-29T10:19:03;1.83;;;1.45;;
30697;SDS011;17448;47.200;10.902;2024-03-29T10:21:31;4.65;;;1.50;;
30697;SDS011;17448;47.200;10.902;2024-03-29T10:23:58;1.20;;;1.10;;
30697;SDS011;17448;47.200;10.902;2024-03-29T10:26:24;1.77;;;1.40;;
30697;SDS011;17448;47.200;10.902;2024-03-29T10:28:51;2.63;;;1.50;;
30697;SDS011;17448;47.200;10.902;2024-03-29T10:31:17;4.07;;;1.58;;
30697;SDS011;17448;47.200;10.902;2024-03-29T10:33:44;2.03;;;1.60;;
30697;SDS011;17448;47.200;10.902;2024-03-29T10:36:11;2.28;;;1.75;;
30697;SDS011;17448;47.200;10.902;2024-03-29T10:38:37;1.73;;;1.20;;
30697;SDS011;17448;47.200;10.902;2024-03-29T10:41:04;3.03;;;1.30;;
30697;SDS011;17448;47.200;10.902;2024-03-29T10:43:32;2.88;;;1.23;;
30697;SDS011;17448;47.200;10.902;2024-03-29T10:46:01;2.50;;;1.63;;
30697;SDS011;17448;47.200;10.902;2024-03-29T10:48:30;1.58;;;1.30;;
30697;SDS011;17448;47.200;10.902;2024-03-29T10:51:01;3.03;;;1.58;;
30697;SDS011;17448;47.200;10.902;2024-03-29T10:53:27;3.97;;;1.73;;
30697;SDS011;17448;47.200;10.902;2024-03-29T10:55:58;1.90;;;1.60;;
30697;SDS011;17448;47.200;10.902;2024-03-29T10:58:30;2.47;;;1.77;;
30697;SDS011;17448;47.200;10.902;2024-03-29T11:01:00;2.33;;;1.10;;
30697;SDS011;17448;47.200;10.902;2024-03-29T11:03:47;1.75;;;1.58;;
30697;SDS011;17448;47.200;10.902;2024-03-29T11:06:15;3.38;;;1.58;;
30697;SDS011;17448;47.200;10.902;2024-03-29T11:08:43;3.70;;;1.77;;
30697;SDS011;17448;47.200;10.902;2024-03-29T11:11:12;3.88;;;1.98;;
30697;SDS011;17448;47.200;10.902;2024-03-29T11:14:02;2.97;;;1.75;;
30697;SDS011;17448;47.200;10.902;2024-03-29T11:16:29;3.85;;;2.00;;
30697;SDS011;17448;47.200;10.902;2024-03-29T11:18:55;4.35;;;2.35;;
30697;SDS011;17448;47.200;10.902;2024-03-29T11:21:22;3.97;;;1.90;;
30697;SDS011;17448;47.200;10.902;2024-03-29T11:23:53;2.78;;;1.88;;
30697;SDS011;17448;47.200;10.902;2024-03-29T11:26:22;4.85;;;1.90;;
30697;SDS011;17448;47.200;10.902;2024-03-29T11:28:51;2.83;;;2.08;;
30697;SDS011;17448;47.200;10.902;2024-03-29T11:31:17;4.38;;;2.33;;
30697;SDS011;17448;47.200;10.902;2024-03-29T11:33:45;3.28;;;2.55;;
30697;SDS011;17448;47.200;10.902;2024-03-29T11:38:41;6.07;;;2.95;;
30697;SDS011;17448;47.200;10.902;2024-03-29T11:43:41;5.93;;;2.60;;
30697;SDS011;17448;47.200;10.902;2024-03-29T11:46:14;4.10;;;2.78;;
30697;SDS011;17448;47.200;10.902;2024-03-29T11:48:44;4.57;;;2.20;;
30697;SDS011;17448;47.200;10.902;2024-03-29T11:53:44;2.20;;;1.85;;
30697;SDS011;17448;47.200;10.902;2024-03-29T11:56:11;5.40;;;2.05;;
30697;SDS011;17448;47.200;10.902;2024-03-29T11:58:38;3.53;;;1.80;;
30697;SDS011;17448;47.200;10.902;2024-03-29T12:01:05;3.05;;;2.00;;
30697;SDS011;17448;47.200;10.902;2024-03-29T12:03:31;2.63;;;1.90;;
30697;SDS011;17448;47.200;10.902;2024-03-29T12:05:58;3.85;;;2.05;;
30697;SDS011;17448;47.200;10.902;2024-03-29T12:08:28;3.30;;;1.48;;
30697;SDS011;17448;47.200;10.902;2024-03-29T12:10:56;5.90;;;1.48;;
30697;SDS011;17448;47.200;10.902;2024-03-29T12:13:23;2.67;;;1.60;;
30697;SDS011;17448;47.200;10.902;2024-03-29T12:15:49;2.00;;;1.60;;
30697;SDS011;17448;47.200;10.902;2024-03-29T12:18:15;6.30;;;2.17;;
30697;SDS011;17448;47.200;10.902;2024-03-29T12:20:42;2.53;;;1.60;;
30697;SDS011;17448;47.200;10.902;2024-03-29T12:23:13;4.13;;;1.38;;
30697;SDS011;17448;47.200;10.902;2024-03-29T12:25:39;4.38;;;1.40;;
30697;SDS011;17448;47.200;10.902;2024-03-29T12:28:06;1.70;;;1.50;;
30697;SDS011;17448;47.200;10.902;2024-03-29T12:30:32;2.78;;;1.60;;
30697;SDS011;17448;47.200;10.902;2024-03-29T12:33:00;2.50;;;1.40;;
30697;SDS011;17448;47.200;10.902;2024-03-29T12:35:28;3.15;;;1.58;;
30697;SDS011;17448;47.200;10.902;2024-03-29T12:38:00;3.88;;;2.08;;
30697;SDS011;17448;47.200;10.902;2024-03-29T12:40:28;3.63;;;1.65;;
30697;SDS011;17448;47.200;10.902;2024-03-29T12:42:57;2.97;;;1.30;;
30697;SDS011;17448;47.200;10.902;2024-03-29T12:45:24;6.40;;;1.45;;
30697;SDS011;17448;47.200;10.902;2024-03-29T12:47:53;1.52;;;1.40;;
30697;SDS011;17448;47.200;10.902;2024-03-29T12:52:48;1.65;;;1.30;;
30697;SDS011;17448;47.200;10.902;2024-03-29T12:55:15;2.72;;;1.20;;
30697;SDS011;17448;47.200;10.902;2024-03-29T12:57:43;2.20;;;1.50;;
30697;SDS011;17448;47.200;10.902;2024-03-29T13:00:12;1.33;;;1.23;;
30697;SDS011;17448;47.200;10.902;2024-03-29T13:02:40;4.88;;;1.50;;
30697;SDS011;17448;47.200;10.902;2024-03-29T13:05:06;2.70;;;1.30;;
30697;SDS011;17448;47.200;10.902;2024-03-29T13:07:33;2.85;;;1.10;;
30697;SDS011;17448;47.200;10.902;2024-03-29T13:09:59;2.38;;;1.20;;
30697;SDS011;17448;47.200;10.902;2024-03-29T13:12:31;1.80;;;1.30;;
30697;SDS011;17448;47.200;10.902;2024-03-29T13:15:01;2.28;;;1.73;;
30697;SDS011;17448;47.200;10.902;2024-03-29T13:17:29;0.80;;;0.80;;
30697;SDS011;17448;47.200;10.902;2024-03-29T13:19:55;1.92;;;1.10;;
30697;SDS011;17448;47.200;10.902;2024-03-29T13:22:22;3.83;;;1.40;;
30697;SDS011;17448;47.200;10.902;2024-03-29T13:24:48;3.25;;;1.50;;
30697;SDS011;17448;47.200;10.902;2024-03-29T13:27:15;2.63;;;1.02;;
30697;SDS011;17448;47.200;10.902;2024-03-29T13:29:41;1.65;;;1.23;;
30697;SDS011;17448;47.200;10.902;2024-03-29T13:32:08;4.50;;;1.65;;
30697;SDS011;17448;47.200;10.902;2024-03-29T13:34:34;3.90;;;1.25;;
30697;SDS011;17448;47.200;10.902;2024-03-29T13:37:00;2.50;;;1.30;;
30697;SDS011;17448;47.200;10.902;2024-03-29T13:39:27;2.92;;;1.80;;
30697;SDS011;17448;47.200;10.902;2024-03-29T13:41:53;1.45;;;1.30;;
30697;SDS011;17448;47.200;10.902;2024-03-29T13:44:19;1.95;;;1.50;;
30697;SDS011;17448;47.200;10.902;2024-03-29T13:46:45;1.90;;;1.30;;
30697;SDS011;17448;47.200;10.902;2024-03-29T13:49:12;3.15;;;1.38;;
30697;SDS011;17448;47.200;10.902;2024-03-29T13:51:39;2.78;;;1.33;;
30697;SDS011;17448;47.200;10.902;2024-03-29T13:54:05;2.97;;;1.20;;
30697;SDS011;17448;47.200;10.902;2024-03-29T13:56:31;1.60;;;1.10;;
30697;SDS011;17448;47.200;10.902;2024-03-29T13:58:58;4.65;;;1.33;;
30697;SDS011;17448;47.200;10.902;2024-03-29T14:01:24;5.75;;;1.60;;
30697;SDS011;17448;47.200;10.902;2024-03-29T14:03:50;3.63;;;1.60;;
30697;SDS011;17448;47.200;10.902;2024-03-29T14:06:18;3.85;;;3.30;;
30697;SDS011;17448;47.200;10.902;2024-03-29T14:08:45;4.47;;;1.52;;
30697;SDS011;17448;47.200;10.902;2024-03-29T14:11:11;1.65;;;1.00;;
30697;SDS011;17448;47.200;10.902;2024-03-29T14:13:39;2.72;;;1.23;;
30697;SDS011;17448;47.200;10.902;2024-03-29T14:16:05;1.38;;;0.90;;
30697;SDS011;17448;47.200;10.902;2024-03-29T14:18:32;5.15;;;0.85;;
30697;SDS011;17448;47.200;10.902;2024-03-29T14:20:58;0.68;;;0.68;;
30697;SDS011;17448;47.200;10.902;2024-03-29T14:23:24;0.85;;;0.70;;
30697;SDS011;17448;47.200;10.902;2024-03-29T14:25:51;1.40;;;0.80;;
30697;SDS011;17448;47.200;10.902;2024-03-29T14:28:17;0.80;;;0.70;;
30697;SDS011;17448;47.200;10.902;2024-03-29T14:30:44;2.70;;;1.00;;
30697;SDS011;17448;47.200;10.902;2024-03-29T14:33:11;0.95;;;0.80;;
30697;SDS011;17448;47.200;10.902;2024-03-29T14:35:37;3.83;;;1.08;;
30697;SDS011;17448;47.200;10.902;2024-03-29T14:38:03;2.42;;;1.30;;
30697;SDS011;17448;47.200;10.902;2024-03-29T14:40:30;1.35;;;1.00;;
30697;SDS011;17448;47.200;10.902;2024-03-29T14:42:57;1.45;;;0.88;;